Bookmark and Share
Track history (hours):
 

Clipper Anne

Last reported at 2014-Mar-16 19:32 UTC. Time now 2014-Apr-18 08:10 UTC.
Position N 37°26' W 000°46'.
Warning: this ship's position is 32 days out of date.

Length 138 m; draft 5.9 m.

Type: Cargo ship. MMSI: 636092036.

NotesDate/timePositionNaut miles runAvg speedWind from/ knotsBaromVisibWave heightAir tempDewpointWater temp
2014-Mar-16 19:32N 37°26' W 000°46'1313.6
2014-Mar-16 18:33N 37°35' W 000°33'1313.2
2014-Mar-16 17:33N 37°46' W 000°24'1313.3
2014-Mar-16 16:33N 37°57' W 000°15'1413.7
2014-Mar-16 15:33N 38°09' W 000°05'2814.1
2014-Mar-16 13:33N 38°32' E 000°14'1413.6
2014-Mar-16 12:31N 38°45' E 000°22'1513.8
2014-Mar-16 11:28N 38°58' E 000°14'  
2014-Mar-13 14:22N 40°10' E 000°49'1114.0
2014-Mar-13 13:33N 40°18' E 000°60'1414.0
2014-Mar-13 12:33N 40°28' E 001°13'1515.1
2014-Mar-13 11:33N 40°37' E 001°29'1615.8
2014-Mar-13 10:33N 40°47' E 001°45'1515.1
2014-Mar-13 09:33N 40°57' E 002°01'1615.2
2014-Mar-13 08:31N 41°07' E 002°16'1615.7
2014-Mar-13 07:32N 41°16' E 002°33'1414.7
2014-Mar-13 06:34N 41°26' E 002°47'10414.7
2014-Mar-12 23:31N 42°40' E 004°24'1515.5
2014-Mar-12 22:33N 42°50' E 004°39'1414.2
2014-Mar-12 21:33N 43°01' E 004°51'1413.9
2014-Mar-12 20:33N 43°10' E 005°06'15 6.5
2014-Mar-12 18:16N 43°20' E 005°21'0 0.0
2014-Mar-12 17:25N 43°20' E 005°21'  
2014-Mar-09 02:24N 43°20' E 005°21'0 0.0
2014-Mar-09 01:22N 43°20' E 005°21'0 0.0
2014-Mar-08 21:10N 43°20' E 005°21'0 0.0
2014-Mar-08 17:07N 43°20' E 005°21'0 0.0
2014-Mar-08 13:17N 43°20' E 005°21'5854.8
2014-Mar-08 12:13N 42°22' E 005°21'5833.9
2014-Mar-08 10:29N 43°20' E 005°21'  

Dump ship's entire track history

sailing weather and tide predictions

Clipper Anne — A8VR8 — position and weather